Time;durP1;ratioP1;P1;durP2;ratioP2;P2;SDS_P1;SDS_P2;PMS_P1;PMS_P2;Temp;Humidity;BMP_temperature;BMP_pressure;BME280_temperature;BME280_humidity;BME280_pressure;Samples;Min_cycle;Max_cycle;Signal;HPM_P1;HPM_P2
2022/10/19 00:00:39;;;;;;;0.40;0.30;;;;;;;20.38;45.76;100153.81;4976217;28;20031;-84
2022/10/19 00:03:05;;;;;;;0.63;0.30;;;;;;;20.39;45.84;100151.94;4965218;28;20023;-84
2022/10/19 00:05:31;;;;;;;0.20;0.20;;;;;;;20.39;45.86;100155.47;4967248;28;20089;-84
2022/10/19 00:08:00;;;;;;;0.43;0.40;;;;;;;20.35;45.83;100157.06;4970373;28;20547;-84
2022/10/19 00:10:26;;;;;;;0.30;0.30;;;;;;;20.40;45.94;100148.13;4957289;28;20033;-84
2022/10/19 00:12:51;;;;;;;0.35;0.28;;;;;;;20.40;45.52;100169.84;4970114;28;20106;-84
2022/10/19 00:15:17;;;;;;;0.47;0.32;;;;;;;20.41;45.76;100163.34;4969024;28;20035;-84
2022/10/19 00:17:42;;;;;;;0.30;0.30;;;;;;;20.39;45.72;100160.91;4980787;28;20433;-84
2022/10/19 00:20:09;;;;;;;0.35;0.30;;;;;;;20.38;45.81;100161.97;4971730;28;20023;-83
2022/10/19 00:22:34;;;;;;;0.30;0.22;;;;;;;20.39;45.96;100168.22;4981889;28;20045;-84
2022/10/19 00:25:00;;;;;;;1.05;0.30;;;;;;;20.40;45.76;100162.53;4972298;28;20122;-84
2022/10/19 00:27:26;;;;;;;0.30;0.22;;;;;;;20.40;45.89;100165.25;4970214;28;20037;-84
2022/10/19 00:29:54;;;;;;;0.47;0.20;;;;;;;20.41;45.74;100169.59;4970917;28;20030;-83
2022/10/19 00:32:19;;;;;;;0.20;0.20;;;;;;;20.40;45.68;100186.97;4967930;28;20028;-84
2022/10/19 00:34:45;;;;;;;0.80;0.40;;;;;;;20.40;45.94;100181.53;4967987;28;20029;-84
2022/10/19 00:37:11;;;;;;;0.32;0.30;;;;;;;20.35;45.76;100172.50;4974897;28;20034;-84
2022/10/19 00:39:46;;;;;;;0.22;0.20;;;;;;;20.37;45.61;100179.34;4955489;28;20403;-84
2022/10/19 00:42:11;;;;;;;0.47;0.20;;;;;;;20.40;45.84;100186.97;4968129;28;20077;-84
2022/10/19 00:44:37;;;;;;;0.25;0.20;;;;;;;20.41;45.89;100187.78;4967365;28;20026;-84
2022/10/19 00:47:05;;;;;;;0.22;0.22;;;;;;;20.42;45.77;100194.81;4976889;28;20022;-84
2022/10/19 00:49:36;;;;;;;0.32;0.32;;;;;;;20.41;45.46;100194.03;4974731;28;20027;-84
2022/10/19 00:52:04;;;;;;;0.30;0.30;;;;;;;20.41;45.90;100202.16;4973204;28;20057;-84
2022/10/19 00:54:31;;;;;;;1.15;0.30;;;;;;;20.41;45.83;100196.72;4964771;28;20649;-84
2022/10/19 00:56:57;;;;;;;1.13;0.35;;;;;;;20.42;45.73;100201.09;4972571;28;20073;-84
2022/10/19 00:59:23;;;;;;;0.22;0.22;;;;;;;20.41;45.71;100188.59;4977265;28;20030;-84
2022/10/19 01:01:49;;;;;;;0.30;0.20;;;;;;;20.42;45.64;100192.94;4975411;28;20334;-84
2022/10/19 01:04:15;;;;;;;0.55;0.40;;;;;;;20.42;45.81;100201.09;4950865;28;20436;-84
2022/10/19 01:06:41;;;;;;;0.68;0.30;;;;;;;20.43;45.58;100196.47;4973133;28;20041;-84
2022/10/19 01:09:07;;;;;;;0.13;0.10;;;;;;;20.42;45.68;100195.66;4968840;28;20030;-84
2022/10/19 01:11:47;;;;;;;0.22;0.22;;;;;;;20.43;45.50;100200.00;4963184;28;20157;-84
2022/10/19 01:14:41;;;;;;;0.43;0.30;;;;;;;20.43;45.51;100202.72;4973479;28;20029;-84
2022/10/19 01:17:37;;;;;;;1.23;0.20;;;;;;;20.44;45.63;100206.28;4970010;28;20051;-84
2022/10/19 01:20:27;;;;;;;1.38;0.30;;;;;;;20.43;45.55;100201.91;4967637;28;20545;-84
2022/10/19 01:23:13;;;;;;;0.22;0.20;;;;;;;20.40;45.58;100207.84;4977293;28;20042;-84
2022/10/19 01:26:25;;;;;;;1.40;0.28;;;;;;;20.42;45.74;100206.53;4959528;28;20359;-84
2022/10/19 01:29:03;;;;;;;0.50;0.30;;;;;;;20.42;45.83;100203.81;4944931;28;20054;-84
2022/10/19 01:31:56;;;;;;;0.30;0.30;;;;;;;20.41;45.58;100207.59;4971951;28;20110;-84
2022/10/19 01:34:28;;;;;;;1.20;0.50;;;;;;;20.38;45.48;100204.56;4972300;28;20085;-84
2022/10/19 01:37:04;;;;;;;0.57;0.35;;;;;;;20.42;45.22;100217.38;4984163;28;20057;-84
2022/10/19 01:39:48;;;;;;;0.50;0.32;;;;;;;20.42;45.43;100211.94;4966986;28;20031;-84
2022/10/19 01:42:15;;;;;;;;;;;;;;;20.44;45.52;100214.41;4974311;28;20220;-84
2022/10/19 01:44:52;;;;;;;1.30;0.30;;;;;;;20.38;45.59;100205.38;4974445;28;20013;-84
2022/10/19 01:47:23;;;;;;;0.20;0.20;;;;;;;20.43;45.30;100221.72;4961501;28;20254;-84
2022/10/19 01:49:54;;;;;;;0.20;0.20;;;;;;;20.43;45.71;100212.75;4953769;28;20030;-84
2022/10/19 01:52:20;;;;;;;0.22;0.20;;;;;;;20.42;45.45;100216.53;4956953;28;20022;-84
2022/10/19 01:54:53;;;;;;;0.40;0.20;;;;;;;20.42;45.57;100211.13;4977661;28;20056;-84
2022/10/19 01:57:21;;;;;;;0.37;0.27;;;;;;;20.42;45.50;100222.81;4955829;28;20029;-84
2022/10/19 01:59:47;;;;;;;0.20;0.20;;;;;;;20.39;45.22;100220.59;4975164;28;20466;-84
2022/10/19 02:02:13;;;;;;;0.35;0.28;;;;;;;20.40;45.54;100218.69;4959469;28;20431;-84
2022/10/19 02:04:39;;;;;;;0.38;0.35;;;;;;;20.42;45.45;100228.25;4971998;28;20041;-84
2022/10/19 02:07:04;;;;;;;0.52;0.38;;;;;;;20.41;45.45;100221.16;4958394;28;20027;-84
2022/10/19 02:09:30;;;;;;;0.35;0.35;;;;;;;20.40;45.32;100224.13;4969730;28;20511;-84
2022/10/19 02:11:58;;;;;;;0.30;0.30;;;;;;;20.41;45.44;100226.59;4981516;28;20105;-84
2022/10/19 02:14:32;;;;;;;0.75;0.47;;;;;;;20.41;45.51;100225.78;4975262;28;20030;-84
2022/10/19 02:17:04;;;;;;;1.27;0.55;;;;;;;20.43;45.40;100227.16;4962932;28;20077;-84
2022/10/19 02:19:30;;;;;;;1.10;0.40;;;;;;;20.41;45.50;100231.19;4964172;28;20089;-84
2022/10/19 02:21:55;;;;;;;0.77;0.40;;;;;;;20.43;45.48;100235.28;4975723;28;20359;-84
2022/10/19 02:24:21;;;;;;;0.70;0.50;;;;;;;20.42;45.35;100228.25;4942696;28;20032;-84
2022/10/19 02:26:46;;;;;;;0.50;0.40;;;;;;;20.39;45.18;100239.59;4956119;28;20495;-84
2022/10/19 02:29:13;;;;;;;1.30;0.60;;;;;;;20.42;45.24;100228.25;4976933;28;20173;-84
2022/10/19 02:31:38;;;;;;;0.40;0.32;;;;;;;20.41;45.09;100237.44;4977038;28;20023;-84
2022/10/19 02:34:04;;;;;;;0.57;0.32;;;;;;;20.43;45.35;100240.72;4974149;28;20037;-84
2022/10/19 02:36:30;;;;;;;0.90;0.40;;;;;;;20.42;45.43;100238.25;4970999;28;20388;-84
2022/10/19 02:38:55;;;;;;;0.60;0.60;;;;;;;20.41;45.13;100242.88;4968417;28;20105;-84
2022/10/19 02:41:34;;;;;;;0.35;0.35;;;;;;;20.43;45.07;100245.34;4979806;28;20117;-84
2022/10/19 02:44:30;;;;;;;2.28;0.40;;;;;;;20.43;44.98;100239.91;4977466;28;20116;-84
2022/10/19 02:47:05;;;;;;;0.50;0.45;;;;;;;20.42;44.78;100239.09;4959709;28;20053;-84
2022/10/19 02:49:32;;;;;;;0.65;0.45;;;;;;;20.37;45.29;100239.03;4970367;28;20062;-84
2022/10/19 02:52:05;;;;;;;2.65;0.60;;;;;;;20.41;45.11;100251.00;4940934;28;20034;-84
2022/10/19 02:54:31;;;;;;;1.17;0.38;;;;;;;20.42;45.08;100244.53;4979556;28;20026;-84
2022/10/19 02:56:56;;;;;;;0.43;0.43;;;;;;;20.41;45.00;100248.31;4974650;28;20522;-84
2022/10/19 02:59:22;;;;;;;1.20;0.40;;;;;;;20.41;44.98;100253.72;4986821;28;20034;-84
2022/10/19 03:01:48;;;;;;;0.52;0.38;;;;;;;20.40;45.03;100257.53;4971708;28;20045;-84
2022/10/19 03:04:14;;;;;;;0.73;0.50;;;;;;;20.43;44.83;100256.19;4974710;28;20407;-84
2022/10/19 03:06:39;;;;;;;0.30;0.30;;;;;;;20.40;44.94;100265.69;4982867;28;20026;-84
2022/10/19 03:09:05;;;;;;;0.63;0.38;;;;;;;20.31;44.84;100248.19;4978515;28;20038;-84
2022/10/19 03:11:31;;;;;;;0.60;0.50;;;;;;;20.42;44.84;100268.09;4967076;28;20023;-84
2022/10/19 03:13:56;;;;;;;0.68;0.50;;;;;;;20.42;44.83;100270.81;4955995;28;20109;-84
2022/10/19 03:16:22;;;;;;;0.65;0.40;;;;;;;20.40;44.93;100268.41;4974683;28;20424;-84
2022/10/19 03:18:48;;;;;;;0.77;0.40;;;;;;;20.40;44.77;100279.25;4980447;28;20053;-84
2022/10/19 03:21:14;;;;;;;0.70;0.47;;;;;;;20.41;44.82;100272.72;4967612;28;20035;-84
2022/10/19 03:23:39;;;;;;;0.45;0.40;;;;;;;20.38;44.59;100270.53;4973615;28;20035;-84
2022/10/19 03:26:06;;;;;;;0.43;0.40;;;;;;;20.40;44.70;100275.69;4954901;28;20178;-84
2022/10/19 03:28:31;;;;;;;0.50;0.40;;;;;;;20.40;44.58;100278.41;4963480;28;20043;-84
2022/10/19 03:30:57;;;;;;;0.40;0.40;;;;;;;20.39;44.72;100283.03;4972104;28;20042;-84
2022/10/19 03:33:23;;;;;;;0.63;0.50;;;;;;;20.40;44.44;100290.09;4971212;28;20102;-84
2022/10/19 03:35:49;;;;;;;0.40;0.40;;;;;;;20.40;44.73;100290.09;4981819;28;20030;-84
2022/10/19 03:38:14;;;;;;;0.52;0.50;;;;;;;20.32;44.68;100281.59;4969460;28;20098;-84
2022/10/19 03:40:40;;;;;;;0.80;0.35;;;;;;;20.40;44.64;100295.53;4981714;28;20144;-84
2022/10/19 03:43:06;;;;;;;0.35;0.35;;;;;;;20.41;44.68;100293.63;4972503;28;20443;-84
2022/10/19 03:45:31;;;;;;;0.60;0.40;;;;;;;20.41;44.48;100296.34;4973548;28;20126;-84
2022/10/19 03:47:57;;;;;;;0.50;0.40;;;;;;;20.41;44.73;100304.50;4981629;28;20026;-84
2022/10/19 03:50:22;;;;;;;1.35;0.47;;;;;;;20.40;44.64;100303.69;4971964;28;20158;-84
2022/10/19 03:52:48;;;;;;;0.88;0.32;;;;;;;20.34;44.61;100290.31;4978787;28;20024;-84
2022/10/19 03:55:14;;;;;;;0.30;0.30;;;;;;;20.31;44.80;100296.22;4961559;28;20115;-84
2022/10/19 03:57:40;;;;;;;0.40;0.30;;;;;;;20.40;44.69;100306.41;4932891;28;20023;-84
2022/10/19 04:00:07;;;;;;;0.28;0.28;;;;;;;20.40;44.79;100313.69;4984873;28;20037;-84
2022/10/19 04:02:32;;;;;;;0.25;0.25;;;;;;;20.39;44.55;100312.88;4971755;28;20533;-84
2022/10/19 04:04:58;;;;;;;0.68;0.40;;;;;;;20.38;44.82;100313.94;4953497;28;20034;-84
2022/10/19 04:07:24;;;;;;;0.30;0.30;;;;;;;20.39;44.58;100326.44;4960922;28;20476;-84
2022/10/19 04:09:49;;;;;;;1.30;0.68;;;;;;;20.40;44.70;100317.25;4969810;28;20475;-84
2022/10/19 04:12:15;;;;;;;0.25;0.22;;;;;;;20.35;44.62;100324.50;4981401;28;20034;-84
2022/10/19 04:14:41;;;;;;;0.55;0.40;;;;;;;20.40;44.52;100328.09;4956358;28;20514;-84
2022/10/19 04:17:06;;;;;;;0.32;0.30;;;;;;;20.40;44.69;100332.69;4978115;28;20062;-84
2022/10/19 04:19:32;;;;;;;0.90;0.60;;;;;;;20.40;44.48;100338.97;4975413;28;20105;-84
2022/10/19 04:21:58;;;;;;;0.65;0.30;;;;;;;20.40;44.37;100333.53;4970420;28;20117;-84
2022/10/19 04:24:23;;;;;;;0.40;0.30;;;;;;;20.40;44.50;100333.53;4984271;28;20096;-84
2022/10/19 04:26:50;;;;;;;2.38;0.40;;;;;;;20.40;44.58;100335.41;4965587;28;20061;-83
2022/10/19 04:29:20;;;;;;;0.38;0.32;;;;;;;20.39;44.56;100340.03;4973976;28;20023;-84
2022/10/19 04:31:48;;;;;;;0.20;0.20;;;;;;;20.40;44.45;100336.25;4969153;28;20173;-84
2022/10/19 04:34:13;;;;;;;0.60;0.38;;;;;;;20.39;44.49;100342.75;4956569;28;20030;-84
2022/10/19 04:36:39;;;;;;;0.47;0.40;;;;;;;20.39;44.58;100345.44;4980976;28;20109;-84
2022/10/19 04:39:04;;;;;;;0.45;0.30;;;;;;;20.30;44.55;100325.28;4968274;28;20026;-84
2022/10/19 04:41:30;;;;;;;1.05;0.30;;;;;;;20.40;44.34;100360.69;4962585;28;20044;-84
2022/10/19 04:43:57;;;;;;;0.45;0.32;;;;;;;20.38;44.54;100341.09;4972124;28;20027;-84
2022/10/19 04:46:23;;;;;;;0.30;0.30;;;;;;;20.40;44.51;100343.56;4972565;28;20034;-84
2022/10/19 04:48:48;;;;;;;0.47;0.30;;;;;;;20.37;44.32;100344.06;4974455;28;20018;-84
2022/10/19 04:51:14;;;;;;;0.30;0.20;;;;;;;20.38;44.39;100357.38;4967859;28;20050;-84
2022/10/19 04:53:40;;;;;;;0.30;0.30;;;;;;;20.39;44.43;100359.03;4973363;28;20022;-84
2022/10/19 04:56:07;;;;;;;0.40;0.30;;;;;;;20.26;44.35;100343.97;4957853;28;20077;-83
2022/10/19 04:58:33;;;;;;;0.60;0.30;;;;;;;20.39;44.44;100363.63;4966976;28;20050;-84
2022/10/19 05:01:05;;;;;;;0.30;0.30;;;;;;;20.35;44.43;100352.47;4970427;28;20031;-84
2022/10/19 05:03:31;;;;;;;0.30;0.30;;;;;;;20.33;44.41;100362.75;4950916;28;20042;-84
2022/10/19 05:05:58;;;;;;;0.22;0.22;;;;;;;20.32;44.34;100369.25;4978286;28;20030;-83
2022/10/19 05:08:23;;;;;;;0.32;0.32;;;;;;;20.38;44.37;100376.38;4957217;28;20069;-84
2022/10/19 05:10:49;;;;;;;0.50;0.30;;;;;;;20.39;44.34;100380.75;4984226;28;20038;-84
2022/10/19 05:13:14;;;;;;;0.47;0.30;;;;;;;20.19;44.27;100354.16;4970676;28;20551;-84
2022/10/19 05:15:40;;;;;;;0.40;0.30;;;;;;;20.32;44.12;100377.41;4956159;28;20030;-84
2022/10/19 05:18:06;;;;;;;0.22;0.22;;;;;;;20.39;44.31;100388.06;4963046;28;20053;-84
2022/10/19 05:20:31;;;;;;;0.65;0.40;;;;;;;20.38;44.37;100395.38;4977435;28;20038;-84
2022/10/19 05:22:57;;;;;;;0.63;0.40;;;;;;;20.37;44.29;100401.03;4970325;28;20066;-84
2022/10/19 05:25:23;;;;;;;0.35;0.30;;;;;;;20.37;44.27;100395.63;4960958;28;20027;-84
2022/10/19 05:27:52;;;;;;;0.63;0.40;;;;;;;20.38;44.28;100398.09;4977648;28;20018;-84
2022/10/19 05:30:20;;;;;;;0.40;0.28;;;;;;;20.38;44.33;100411.66;4973501;28;20109;-84
2022/10/19 05:32:46;;;;;;;0.40;0.40;;;;;;;20.38;44.22;100408.94;4970081;28;20165;-84
2022/10/19 05:35:12;;;;;;;0.20;0.20;;;;;;;20.38;44.24;100422.50;4969551;28;20383;-84
2022/10/19 05:37:38;;;;;;;1.23;0.30;;;;;;;20.38;44.10;100421.69;4938825;28;20027;-84
2022/10/19 05:40:19;;;;;;;0.30;0.30;;;;;;;20.38;43.92;100419.78;4943058;28;20069;-83
2022/10/19 05:42:48;;;;;;;0.73;0.40;;;;;;;20.25;44.09;100395.78;4956908;28;20545;-84
2022/10/19 05:45:23;;;;;;;0.20;0.20;;;;;;;20.26;43.98;100408.25;4953509;28;20031;-84
2022/10/19 05:47:48;;;;;;;0.60;0.30;;;;;;;20.16;44.23;100398.09;4973442;28;20490;-84
2022/10/19 05:50:14;;;;;;;0.98;0.40;;;;;;;20.24;44.25;100404.97;4966695;28;20027;-84
2022/10/19 05:52:39;;;;;;;0.88;0.30;;;;;;;20.38;44.13;100427.13;4939668;28;20030;-84
2022/10/19 05:55:06;;;;;;;0.57;0.20;;;;;;;20.36;44.15;100432.81;4969709;28;20039;-84
2022/10/19 05:57:31;;;;;;;0.30;0.30;;;;;;;20.31;44.03;100430.03;4971842;28;20395;-83
2022/10/19 05:59:57;;;;;;;0.25;0.20;;;;;;;20.37;43.96;100436.31;4977920;28;20054;-84
2022/10/19 06:02:23;;;;;;;0.60;0.30;;;;;;;20.54;43.68;100441.72;4974283;28;20026;-84
2022/10/19 06:04:49;;;;;;;0.30;0.30;;;;;;;20.70;43.19;100435.44;4973875;28;20101;-84
2022/10/19 06:07:14;;;;;;;0.43;0.40;;;;;;;20.88;42.81;100436.16;4980836;28;20472;-84
2022/10/19 06:09:40;;;;;;;0.25;0.25;;;;;;;20.96;42.53;100430.28;4981870;28;20118;-84
2022/10/19 06:12:06;;;;;;;0.40;0.40;;;;;;;21.04;42.17;100432.56;4986871;28;20737;-84
2022/10/19 06:14:56;;;;;;;0.38;0.20;;;;;;;21.03;42.15;100436.34;4954776;28;20025;-84
2022/10/19 06:17:21;;;;;;;0.38;0.30;;;;;;;20.99;42.45;100443.38;4948523;28;20054;-84
2022/10/19 06:19:47;;;;;;;0.68;0.40;;;;;;;20.85;42.22;100442.09;4971832;28;20479;-84
2022/10/19 06:22:12;;;;;;;1.65;0.30;;;;;;;20.81;42.53;100448.03;4979832;28;20539;-84
2022/10/19 06:24:41;;;;;;;0.20;0.20;;;;;;;20.53;42.37;100397.47;4989435;28;20037;-84
2022/10/19 06:27:06;;;;;;;0.30;0.30;;;;;;;20.81;42.48;100453.47;4973971;28;20084;-84
2022/10/19 06:29:32;;;;;;;0.45;0.30;;;;;;;20.76;42.56;100453.41;4972881;28;20495;-84
2022/10/19 06:31:59;;;;;;;0.40;0.32;;;;;;;20.72;42.84;100457.72;4957377;28;20041;-84
2022/10/19 06:34:43;;;;;;;0.55;0.30;;;;;;;20.56;42.75;100450.44;4974525;28;20073;-84
2022/10/19 06:37:08;;;;;;;0.40;0.30;;;;;;;20.61;42.93;100458.63;4950184;28;20273;-84
2022/10/19 06:39:34;;;;;;;0.40;0.20;;;;;;;20.56;42.99;100453.16;4962925;28;20105;-84
2022/10/19 06:41:59;;;;;;;0.30;0.30;;;;;;;20.52;43.34;100457.44;4943589;28;20443;-84
2022/10/19 06:44:26;;;;;;;0.20;0.20;;;;;;;20.63;43.27;100473.63;4952527;28;20137;-84
2022/10/19 06:46:51;;;;;;;0.60;0.30;;;;;;;20.55;43.31;100465.91;4955123;28;20031;-84
2022/10/19 06:49:17;;;;;;;0.30;0.20;;;;;;;20.60;43.36;100473.28;4980214;28;20585;-84
2022/10/19 06:51:43;;;;;;;0.30;0.22;;;;;;;20.59;43.48;100482.50;4978348;28;20058;-84
2022/10/19 06:54:08;;;;;;;0.20;0.20;;;;;;;20.58;43.45;100487.13;4977193;28;20030;-84
2022/10/19 06:56:35;;;;;;;0.98;0.40;;;;;;;20.53;43.55;100478.09;4966180;28;20126;-84
2022/10/19 06:59:03;;;;;;;0.20;0.20;;;;;;;20.51;43.49;100489.19;4901392;29;20237;-85
2022/10/19 07:01:29;;;;;;;0.45;0.30;;;;;;;20.56;43.51;100488.47;4897224;29;20039;-84
2022/10/19 07:04:04;;;;;;;0.75;0.40;;;;;;;20.54;43.53;100496.00;4906085;29;20044;-84
2022/10/19 07:06:30;;;;;;;0.28;0.28;;;;;;;20.53;43.68;100500.63;4927286;29;20075;-84
2022/10/19 07:08:56;;;;;;;0.30;0.30;;;;;;;20.53;43.70;100494.38;4915570;29;20036;-84
2022/10/19 07:11:22;;;;;;;0.45;0.35;;;;;;;20.49;43.62;100487.78;4922278;29;20501;-84
2022/10/19 07:13:54;;;;;;;0.63;0.30;;;;;;;20.52;43.61;100498.97;4913054;29;20132;-84
2022/10/19 07:16:20;;;;;;;0.85;0.40;;;;;;;20.50;43.63;100497.59;4922353;29;20043;-85
2022/10/19 07:19:06;;;;;;;0.20;0.20;;;;;;;20.51;43.65;100502.78;4917450;29;20417;-84
2022/10/19 07:21:34;;;;;;;0.40;0.22;;;;;;;20.49;43.79;100507.63;4915687;29;20032;-84
2022/10/19 07:24:00;;;;;;;0.20;0.20;;;;;;;20.42;43.87;100494.25;4910949;29;20047;-84
2022/10/19 07:26:27;;;;;;;0.47;0.30;;;;;;;20.50;43.68;100516.59;4907074;29;20071;-84
2022/10/19 07:28:54;;;;;;;0.55;0.30;;;;;;;20.46;43.89;100510.84;4919385;29;20036;-84
2022/10/19 07:31:21;;;;;;;0.45;0.30;;;;;;;20.49;43.87;100526.63;4888431;29;20371;-84
2022/10/19 07:33:50;;;;;;;0.98;0.20;;;;;;;20.48;43.80;100519.56;4906883;29;20036;-84
2022/10/19 07:36:16;;;;;;;0.32;0.30;;;;;;;20.49;43.81;100514.94;4938009;28;20047;-84
2022/10/19 07:38:41;;;;;;;0.20;0.20;;;;;;;20.49;43.78;100526.63;4963364;28;20037;-84
2022/10/19 07:41:13;;;;;;;0.80;0.30;;;;;;;20.48;43.87;100522.28;4978605;28;20172;-84
2022/10/19 07:43:41;;;;;;;0.30;0.30;;;;;;;20.44;43.86;100524.66;4976347;28;20110;-84
2022/10/19 07:46:12;;;;;;;0.35;0.20;;;;;;;20.48;44.00;100519.56;4964774;28;20030;-84
2022/10/19 07:48:56;;;;;;;0.63;0.32;;;;;;;20.49;43.88;100528.50;4975884;28;20034;-84
2022/10/19 07:51:22;;;;;;;0.50;0.20;;;;;;;20.39;43.83;100535.44;4948207;28;20031;-84
2022/10/19 07:54:07;;;;;;;0.75;0.32;;;;;;;20.49;43.76;100532.06;4957637;28;20038;-84
2022/10/19 07:56:33;;;;;;;0.22;0.20;;;;;;;20.24;43.93;100508.09;4941122;28;20034;-84
2022/10/19 07:58:59;;;;;;;0.28;0.22;;;;;;;20.49;43.91;100536.66;4964142;28;20105;-84
2022/10/19 08:01:29;;;;;;;0.70;0.40;;;;;;;20.41;43.92;100533.31;4976713;28;20035;-84
2022/10/19 08:03:56;;;;;;;0.40;0.30;;;;;;;20.48;43.99;100529.59;4957667;28;20030;-84
2022/10/19 08:06:23;;;;;;;0.20;0.20;;;;;;;20.49;44.15;100539.38;4973610;28;20032;-84
2022/10/19 08:08:58;;;;;;;0.68;0.30;;;;;;;20.48;44.01;100535.03;4957645;28;20033;-84
2022/10/19 08:11:28;;;;;;;0.40;0.40;;;;;;;20.48;43.88;100538.56;4936197;28;20062;-84
2022/10/19 08:13:54;;;;;;;0.30;0.30;;;;;;;20.43;43.92;100525.72;4974167;28;20040;-84
2022/10/19 08:16:36;;;;;;;0.30;0.28;;;;;;;20.50;43.90;100530.16;4981146;28;20038;-84
2022/10/19 08:19:21;;;;;;;0.60;0.22;;;;;;;20.49;43.80;100542.09;4978263;28;20034;-84
2022/10/19 08:21:47;;;;;;;0.50;0.30;;;;;;;20.43;44.06;100535.78;4937613;28;20046;-84
2022/10/19 08:24:13;;;;;;;0.22;0.22;;;;;;;20.49;44.09;100548.34;4977332;28;20041;-84
2022/10/19 08:26:39;;;;;;;0.20;0.20;;;;;;;20.49;43.85;100547.50;4965799;28;20428;-84
2022/10/19 08:29:09;;;;;;;0.30;0.30;;;;;;;20.50;44.12;100546.47;4973111;28;20089;-84
2022/10/19 08:31:34;;;;;;;0.40;0.20;;;;;;;20.49;44.01;100542.09;4957393;28;20045;-84
2022/10/19 08:34:00;;;;;;;0.63;0.30;;;;;;;20.50;44.07;100546.47;4981915;28;20383;-84
2022/10/19 08:36:29;;;;;;;0.40;0.30;;;;;;;20.49;44.13;100551.06;4955542;28;20186;-84
2022/10/19 08:38:55;;;;;;;0.28;0.28;;;;;;;20.52;44.08;100557.88;4951899;28;20060;-84
2022/10/19 08:41:50;;;;;;;0.30;0.30;;;;;;;20.55;44.16;100551.97;4983649;28;20472;-84
2022/10/19 08:44:28;;;;;;;0.30;0.30;;;;;;;20.48;43.99;100557.56;4935898;28;20054;-84
2022/10/19 08:46:59;;;;;;;0.47;0.25;;;;;;;20.54;43.99;100572.03;4983793;28;20030;-84
2022/10/19 08:49:26;;;;;;;0.20;0.20;;;;;;;20.51;43.87;100557.06;4980903;28;20071;-84
2022/10/19 08:52:04;;;;;;;0.22;0.22;;;;;;;20.54;44.07;100572.88;4958264;28;20031;-84
2022/10/19 08:54:59;;;;;;;0.30;0.20;;;;;;;20.55;44.03;100570.97;4975949;28;20232;-84
2022/10/19 08:57:43;;;;;;;0.50;0.20;;;;;;;20.56;44.01;100569.91;4952712;28;20528;-84
2022/10/19 09:00:35;;;;;;;1.35;0.30;;;;;;;20.49;44.01;100558.38;4986778;28;20031;-84
2022/10/19 09:03:39;;;;;;;1.17;0.40;;;;;;;20.57;44.02;100574.25;4958261;28;20439;-84
2022/10/19 09:06:36;;;;;;;0.85;0.30;;;;;;;20.55;43.98;100579.91;4986787;28;20034;-84
2022/10/19 09:09:02;;;;;;;0.30;0.30;;;;;;;20.56;44.08;100576.16;4958098;28;20031;-84
2022/10/19 09:11:33;;;;;;;0.30;0.30;;;;;;;20.53;44.10;100573.94;4962477;28;20018;-84
2022/10/19 09:14:18;;;;;;;0.15;0.15;;;;;;;20.57;44.04;100582.38;4961823;28;20049;-84
2022/10/19 09:16:45;;;;;;;0.20;0.20;;;;;;;20.56;43.99;100591.63;4965407;28;20500;-84
2022/10/19 09:19:31;;;;;;;0.30;0.30;;;;;;;20.59;44.09;100591.09;4977894;28;20052;-84
2022/10/19 09:21:59;;;;;;;0.50;0.40;;;;;;;20.53;43.83;100581.25;4960564;28;20122;-84
2022/10/19 09:24:35;;;;;;;0.60;0.40;;;;;;;20.55;43.54;100581.81;4970783;28;20088;-84
2022/10/19 09:27:01;;;;;;;0.28;0.28;;;;;;;20.56;43.29;100580.75;4973037;28;20113;-84
2022/10/19 09:29:41;;;;;;;0.95;0.30;;;;;;;20.55;43.33;100584.53;4973717;28;20034;-84
2022/10/19 09:32:37;;;;;;;0.20;0.20;;;;;;;20.57;43.40;100587.81;4970943;28;20085;-84
2022/10/19 09:35:28;;;;;;;0.70;0.25;;;;;;;20.57;43.52;100585.91;4980474;28;20034;-84
2022/10/19 09:37:54;;;;;;;0.70;0.20;;;;;;;20.55;43.66;100592.69;4967837;28;20035;-84
2022/10/19 09:40:30;;;;;;;0.32;0.30;;;;;;;20.44;43.39;100578.97;4971991;28;20466;-84
2022/10/19 09:42:57;;;;;;;0.47;0.40;;;;;;;20.48;43.33;100594.75;4959376;28;20034;-84
2022/10/19 09:45:43;;;;;;;0.35;0.35;;;;;;;20.55;43.18;100601.66;4970959;28;20603;-84
2022/10/19 09:48:19;;;;;;;0.20;0.20;;;;;;;20.55;43.31;100606.25;4964641;28;20034;-84
2022/10/19 09:50:44;;;;;;;0.65;0.32;;;;;;;20.55;43.29;100606.25;4957646;28;20085;-84
2022/10/19 09:53:19;;;;;;;0.30;0.30;;;;;;;20.57;43.33;100595.97;4977757;28;20436;-84
2022/10/19 09:55:47;;;;;;;0.30;0.20;;;;;;;20.54;43.44;100601.88;4966962;28;20110;-84
2022/10/19 09:58:12;;;;;;;0.30;0.30;;;;;;;20.57;43.61;100620.41;4969507;28;20022;-84
2022/10/19 10:00:41;;;;;;;0.30;0.30;;;;;;;20.55;43.66;100615.22;4975876;28;20085;-84
2022/10/19 10:03:07;;;;;;;0.30;0.20;;;;;;;20.50;43.39;100608.91;4968600;28;20064;-84
2022/10/19 10:05:39;;;;;;;0.32;0.25;;;;;;;20.56;43.54;100616.06;4964465;28;20031;-84
2022/10/19 10:08:12;;;;;;;0.40;0.30;;;;;;;20.57;43.59;100623.13;4973787;28;20034;-84
2022/10/19 10:10:38;;;;;;;0.22;0.22;;;;;;;20.58;43.73;100627.50;4970417;28;20031;-84
2022/10/19 10:13:04;;;;;;;0.20;0.20;;;;;;;20.58;43.64;100627.50;4968967;28;20369;-84
2022/10/19 10:15:39;;;;;;;0.30;0.30;;;;;;;20.57;43.68;100614.97;4948663;28;20720;-84
2022/10/19 10:18:05;;;;;;;0.30;0.30;;;;;;;20.57;43.71;100620.41;4985241;28;20042;-84
2022/10/19 10:20:31;;;;;;;0.20;0.20;;;;;;;20.57;43.84;100620.41;4975080;28;20384;-84
2022/10/19 10:23:02;;;;;;;0.60;0.30;;;;;;;20.54;44.06;100619.03;4977268;28;20039;-84
2022/10/19 10:25:30;;;;;;;0.57;0.30;;;;;;;20.56;43.93;100630.44;4974630;28;20363;-84
2022/10/19 10:27:58;;;;;;;0.35;0.30;;;;;;;20.56;43.80;100635.06;4976166;28;20057;-84
2022/10/19 10:30:24;;;;;;;0.28;0.28;;;;;;;20.55;43.75;100625.25;4978348;28;20046;-84
2022/10/19 10:32:51;;;;;;;0.32;0.25;;;;;;;20.55;43.61;100633.41;4968029;28;20819;-84
2022/10/19 10:35:21;;;;;;;1.15;0.30;;;;;;;20.53;43.56;100627.41;4959855;28;20030;-84
2022/10/19 10:37:46;;;;;;;0.43;0.32;;;;;;;20.53;43.13;100630.13;4969986;28;20026;-84
2022/10/19 10:40:30;;;;;;;0.20;0.20;;;;;;;20.55;43.31;100636.13;4959659;28;20077;-84
2022/10/19 10:43:01;;;;;;;0.20;0.20;;;;;;;20.56;43.44;100630.44;4977527;28;20035;-84
2022/10/19 10:45:35;;;;;;;0.30;0.30;;;;;;;20.55;43.51;100639.66;4966967;28;20045;-84
2022/10/19 10:48:37;;;;;;;0.20;0.20;;;;;;;20.57;43.50;100634.78;4972906;28;20031;-84
2022/10/19 10:51:04;;;;;;;0.70;0.30;;;;;;;20.56;43.66;100640.50;4934076;28;20042;-84
2022/10/19 10:53:31;;;;;;;0.20;0.20;;;;;;;20.56;43.60;100640.50;4942383;28;20030;-84
2022/10/19 10:55:56;;;;;;;0.30;0.30;;;;;;;20.56;43.54;100640.50;4957213;28;20034;-84
2022/10/19 10:58:46;;;;;;;0.35;0.25;;;;;;;20.56;43.53;100640.50;4975589;28;20035;-84
2022/10/19 11:01:22;;;;;;;0.40;0.30;;;;;;;20.54;43.50;100634.47;4955830;28;20233;-84
2022/10/19 11:04:10;;;;;;;0.20;0.20;;;;;;;20.54;43.22;100638.03;4953056;28;20035;-84
2022/10/19 11:06:38;;;;;;;0.20;0.20;;;;;;;20.53;43.14;100636.38;4971760;28;20042;-84
2022/10/19 11:09:22;;;;;;;0.20;0.20;;;;;;;20.54;43.02;100631.75;4931931;28;20026;-83
2022/10/19 11:11:47;;;;;;;0.25;0.25;;;;;;;20.52;43.18;100639.31;4963420;28;20080;-84
2022/10/19 11:14:31;;;;;;;0.85;0.20;;;;;;;20.55;43.23;100638.84;4938962;28;20508;-83
2022/10/19 11:16:59;;;;;;;1.63;0.32;;;;;;;20.49;43.28;100631.66;4971552;28;20579;-83
2022/10/19 11:19:33;;;;;;;0.25;0.20;;;;;;;20.55;43.30;100638.84;4952241;28;20121;-84
2022/10/19 11:22:27;;;;;;;0.28;0.28;;;;;;;20.55;43.40;100627.97;4972849;28;20438;-83
2022/10/19 11:25:08;;;;;;;0.20;0.17;;;;;;;20.55;43.46;100631.50;4959240;28;20039;-83
2022/10/19 11:27:55;;;;;;;0.30;0.20;;;;;;;20.52;43.56;100634.72;4978385;28;20025;-83
2022/10/19 11:30:22;;;;;;;0.40;0.28;;;;;;;20.55;43.70;100630.69;4948337;28;20025;-83
2022/10/19 11:33:14;;;;;;;0.30;0.30;;;;;;;20.49;43.62;100624.38;4966357;28;20412;-83
2022/10/19 11:35:52;;;;;;;0.20;0.20;;;;;;;20.55;43.62;100630.69;4966360;28;20038;-84
2022/10/19 11:38:39;;;;;;;0.20;0.20;;;;;;;20.54;43.63;100626.31;4973129;28;20038;-84